Aurora, CO (80012)

1:35 PM MST on December 26, 2014 (GMT -0700)
APRSWXNET Aurora CO US | Change Station
CLOSE
Current Station
Personal Weather Station
Location: Aurora, CO
Elevation: 5485 ft
Nearby Weather Stations

Elev 5485 ft 39.70 °N, 104.80 °W | Updated 35 minutes ago

Snow
Snow
18 °F
Feels Like 12 °F
N
4
Wind Variable Wind from NNE
Gusts 8.0 mph

Today
High -- | Low -- °F
--% Chance of Precip.
Yesterday
High -- | Low -- °F
Precip. -- in
7:18 AM 4:41 PM
Waxing Crescent, 29% visible
Pressure 30.05 in
Visibility 4.0 miles
Clouds Scattered Clouds 600 ft
Overcast 1200 ft
Windchill 12 °F
Dew Point 16 °F
Humidity 92%
Rainfall 0.00 in
Snow Depth Not available.
UV 1 out of 12
Pollen .10 out of 12
Air Quality Not available.
Flu Activity Not available.
METAR KBKF 261958Z 01007KT 4SM -SN BR SCT006 OVC012 M08/M10 A2990 RMK AO2A SLP174 P0000 T10781102

More Conditions Fewer Conditions

Pressure 30.05 in
Visibility 4.0 miles
Clouds Scattered Clouds 600 ft
Overcast 1200 ft
Windchill 12 °F
Dew Point 16 °F
Humidity 92%
Rainfall 0.00 in
Snow Depth Not available.
UV 1 out of 12
Pollen .10 out of 12
Air Quality Not available.
Flu Activity Not available.
METAR KBKF 261958Z 01007KT 4SM -SN BR SCT006 OVC012 M08/M10 A2990 RMK AO2A SLP174 P0000 T10781102

More Conditions Fewer Conditions

10-Day Weather Forecast

Almanac

Astronomy

Dec. 26, 2014 Rise Set
Actual Time
Civil Twilight
Nautical Twilight
Astronomical Twilight
Moon
Length of Visible Light
Length of Day
Tomorrow will be .
, % of the Moon is Illuminated

Today's Extremes

State Highs State Lows

Community

WunderPhotos

Upload Photos

1,780,695 photos uploaded!

WunderBlogs® & News

Nearby

Air Quality

  Air Quality AQ Index Pollutant
Not available.

Snow Depth

Station Depth Elevation

Earthquake Activity

City Distance Mag. Time & Date
Minimum magnitude displayed is 2.5.

Coastal Water Temperatures

Place Temperature

Nearby Weather Stations